createdAt,value
2022-10-05T00:01:01.052Z,101271.63
2022-10-05T00:04:23.012Z,101274.22
2022-10-05T00:07:26.108Z,101277.44
2022-10-05T00:10:31.235Z,101277.81
2022-10-05T00:13:34.286Z,101275.41
2022-10-05T00:16:38.184Z,101272.59
2022-10-05T00:19:41.525Z,101274.75
2022-10-05T00:22:43.613Z,101271.03
2022-10-05T00:25:47.304Z,101276.19
2022-10-05T00:28:50.220Z,101261.91
2022-10-05T00:31:52.951Z,101262.09
2022-10-05T00:34:57.870Z,101272.16
2022-10-05T00:38:01.213Z,101266.12
2022-10-05T00:41:06.761Z,101251.84
2022-10-05T00:44:20.918Z,101256.59
2022-10-05T00:47:33.029Z,101259.34
2022-10-05T00:50:54.002Z,101257.81
2022-10-05T00:53:56.860Z,101251.84
2022-10-05T00:57:02.509Z,101249.47
2022-10-05T01:00:07.738Z,101246.28
2022-10-05T01:03:10.632Z,101257.22
2022-10-05T01:06:23.860Z,101263.13
2022-10-05T01:09:43.654Z,101256.94
2022-10-05T01:13:05.656Z,101261.16
2022-10-05T01:16:15.960Z,101271.84
2022-10-05T01:19:24.673Z,101278.66
2022-10-05T01:22:46.008Z,101287.41
2022-10-05T01:25:54.997Z,101290.53
2022-10-05T01:29:03.145Z,101286.31
2022-10-05T01:32:20.230Z,101284.75
2022-10-05T01:35:58.548Z,101294.00
2022-10-05T01:39:10.751Z,101291.44
2022-10-05T01:42:21.332Z,101301.44
2022-10-05T01:45:24.186Z,101296.50
2022-10-05T01:48:40.110Z,101291.37
2022-10-05T01:51:57.229Z,101284.63
2022-10-05T01:55:18.429Z,101291.78
2022-10-05T01:58:46.115Z,101292.41
2022-10-05T02:01:57.853Z,101294.22
2022-10-05T02:05:05.373Z,101293.91
2022-10-05T02:08:10.044Z,101300.16
2022-10-05T02:11:13.890Z,101301.06
2022-10-05T02:14:23.693Z,101304.53
2022-10-05T02:17:30.214Z,101308.37
2022-10-05T02:20:35.477Z,101308.56
2022-10-05T02:23:40.754Z,101303.38
2022-10-05T02:26:43.980Z,101307.44
2022-10-05T02:29:49.246Z,101313.69
2022-10-05T02:32:54.593Z,101307.22
2022-10-05T02:36:02.705Z,101311.72
2022-10-05T02:39:22.377Z,101308.09
2022-10-05T02:42:28.357Z,101314.34
2022-10-05T02:45:40.985Z,101315.81
2022-10-05T02:48:44.244Z,101317.56
2022-10-05T02:51:55.451Z,101325.41
2022-10-05T02:55:01.770Z,101321.97
2022-10-05T02:58:26.208Z,101325.19
2022-10-05T03:01:33.231Z,101323.72
2022-10-05T03:04:41.887Z,101321.56
2022-10-05T03:07:52.384Z,101319.94
2022-10-05T03:10:58.338Z,101316.25
2022-10-05T03:14:19.081Z,101314.34
2022-10-05T03:17:23.331Z,101314.44
2022-10-05T03:20:44.975Z,101308.84
2022-10-05T03:24:11.195Z,101301.91
2022-10-05T03:27:29.907Z,101299.88
2022-10-05T03:30:37.263Z,101298.37
2022-10-05T03:33:39.889Z,101297.53
2022-10-05T03:37:00.003Z,101296.84
2022-10-05T03:40:05.629Z,101301.34
2022-10-05T03:43:17.572Z,101307.50
2022-10-05T03:46:34.002Z,101310.28
2022-10-05T03:50:05.320Z,101311.06
2022-10-05T03:53:23.070Z,101316.38
2022-10-05T03:56:33.727Z,101316.56
2022-10-05T03:59:52.053Z,101323.50
2022-10-05T04:03:13.994Z,101322.78
2022-10-05T04:06:37.084Z,101328.63
2022-10-05T04:09:45.901Z,101333.03
2022-10-05T04:12:55.842Z,101315.59
2022-10-05T04:16:02.883Z,101317.09
2022-10-05T04:19:16.973Z,101324.06
2022-10-05T04:22:25.890Z,101322.34
2022-10-05T04:25:36.253Z,101324.19
2022-10-05T04:28:47.703Z,101325.00
2022-10-05T04:31:55.545Z,101322.94
2022-10-05T04:35:18.107Z,101329.19
2022-10-05T04:38:36.025Z,101332.44
2022-10-05T04:41:49.390Z,101335.16
2022-10-05T04:45:01.456Z,101339.34
2022-10-05T04:48:03.900Z,101336.22
2022-10-05T04:51:19.589Z,101330.59
2022-10-05T04:54:54.587Z,101337.53
2022-10-05T04:58:01.060Z,101339.66
2022-10-05T05:01:23.662Z,101337.19
2022-10-05T05:04:51.490Z,101328.97
2022-10-05T05:08:13.275Z,101321.31
2022-10-05T05:11:24.534Z,101335.03
2022-10-05T05:14:45.943Z,101326.84
2022-10-05T05:17:51.728Z,101316.91
2022-10-05T05:21:09.157Z,101322.09
2022-10-05T05:24:30.266Z,101327.03
2022-10-05T05:27:52.101Z,101332.97
2022-10-05T05:31:21.290Z,101335.22
2022-10-05T05:34:47.627Z,101326.56
2022-10-05T05:38:09.459Z,101334.47
2022-10-05T05:41:24.226Z,101337.81
2022-10-05T05:44:28.985Z,101341.44
2022-10-05T05:47:38.437Z,101353.16
2022-10-05T05:50:49.592Z,101364.94
2022-10-05T05:53:56.174Z,101360.28
2022-10-05T05:56:59.050Z,101370.97
2022-10-05T06:00:18.732Z,101377.94
2022-10-05T06:03:36.271Z,101383.50
2022-10-05T06:06:42.150Z,101389.06
2022-10-05T06:09:55.058Z,101385.22
2022-10-05T06:13:01.947Z,101391.22
2022-10-05T06:16:23.825Z,101409.34
2022-10-05T06:19:28.596Z,101416.91
2022-10-05T06:22:35.186Z,101423.31
2022-10-05T06:25:45.398Z,101429.06
2022-10-05T06:28:55.155Z,101444.56
2022-10-05T06:32:07.316Z,101437.97
2022-10-05T06:35:18.281Z,101437.19
2022-10-05T06:38:39.747Z,101435.31
2022-10-05T06:41:51.817Z,101443.28
2022-10-05T06:45:12.480Z,101444.13
2022-10-05T06:48:38.952Z,101449.50
2022-10-05T06:52:00.314Z,101447.25
2022-10-05T06:55:17.603Z,101449.97
2022-10-05T06:58:42.042Z,101452.09
2022-10-05T07:01:51.844Z,101459.81
2022-10-05T07:05:01.887Z,101458.31
2022-10-05T07:08:11.446Z,101471.94
2022-10-05T07:11:19.669Z,101477.06
2022-10-05T07:14:23.167Z,101487.31
2022-10-05T07:17:28.204Z,101480.25
2022-10-05T07:20:33.563Z,101486.12
2022-10-05T07:23:36.366Z,101467.34
2022-10-05T07:26:46.849Z,101465.91
2022-10-05T07:30:05.020Z,101459.28
2022-10-05T07:33:29.571Z,101471.94
2022-10-05T07:36:59.716Z,101483.63
2022-10-05T07:40:21.305Z,101493.69
2022-10-05T07:43:32.084Z,101493.09
2022-10-05T07:46:44.984Z,101482.09
2022-10-05T07:49:54.232Z,101485.84
2022-10-05T07:52:58.759Z,101478.13
2022-10-05T07:56:04.013Z,101480.81
2022-10-05T07:59:12.825Z,101478.59
2022-10-05T08:02:15.480Z,101484.47
2022-10-05T08:05:30.380Z,101502.81
2022-10-05T08:08:45.927Z,101492.09
2022-10-05T08:11:57.469Z,101496.53
2022-10-05T08:15:17.975Z,101490.69
2022-10-05T08:18:27.119Z,101487.22
2022-10-05T08:21:35.812Z,101479.22
2022-10-05T08:24:48.316Z,101474.22
2022-10-05T08:27:53.808Z,101468.03
2022-10-05T08:31:00.813Z,101458.56
2022-10-05T08:34:22.543Z,101458.13
2022-10-05T08:37:37.939Z,101460.34
2022-10-05T08:40:46.631Z,101467.34
2022-10-05T08:44:08.151Z,101466.63
2022-10-05T08:47:17.775Z,101454.31
2022-10-05T08:50:39.776Z,101452.41
2022-10-05T08:54:01.772Z,101451.06
2022-10-05T08:57:13.652Z,101449.06
2022-10-05T09:00:21.386Z,101457.72
2022-10-05T09:03:35.104Z,101450.91
2022-10-05T09:06:56.736Z,101457.37
2022-10-05T09:10:25.844Z,101462.88
2022-10-05T09:13:41.409Z,101467.66
2022-10-05T09:16:43.785Z,101471.00
2022-10-05T09:19:50.094Z,101480.16
2022-10-05T09:22:59.227Z,101479.38
2022-10-05T09:26:24.515Z,101490.81
2022-10-05T09:29:31.935Z,101485.56
2022-10-05T09:32:43.904Z,101479.97
2022-10-05T09:35:50.586Z,101486.09
2022-10-05T09:39:17.771Z,101481.53
2022-10-05T09:42:24.753Z,101472.53
2022-10-05T09:45:43.564Z,101485.00
2022-10-05T09:48:51.979Z,101486.22
2022-10-05T09:52:07.093Z,101480.16
2022-10-05T09:55:28.740Z,101476.00
2022-10-05T09:58:46.653Z,101468.69
2022-10-05T10:02:25.605Z,101472.34
2022-10-05T10:05:31.903Z,101473.81
2022-10-05T10:08:43.598Z,101470.00
2022-10-05T10:12:09.675Z,101477.50
2022-10-05T10:15:12.512Z,101470.84
2022-10-05T10:18:23.028Z,101475.31
2022-10-05T10:21:44.619Z,101471.69
2022-10-05T10:25:05.690Z,101475.59
2022-10-05T10:28:28.109Z,101468.91
2022-10-05T10:31:31.358Z,101469.72
2022-10-05T10:34:49.115Z,101476.56
2022-10-05T10:38:10.790Z,101473.25
2022-10-05T10:41:39.846Z,101475.44
2022-10-05T10:45:01.031Z,101472.62
2022-10-05T10:48:24.314Z,101467.13
2022-10-05T10:51:44.467Z,101472.66
2022-10-05T10:55:06.094Z,101478.59
2022-10-05T10:58:27.925Z,101469.38
2022-10-05T11:01:35.013Z,101469.47
2022-10-05T11:04:54.926Z,101469.44
2022-10-05T11:07:58.455Z,101470.56
2022-10-05T11:11:06.734Z,101476.38
2022-10-05T11:14:28.291Z,101471.31
2022-10-05T11:17:37.079Z,101474.28
2022-10-05T11:20:45.974Z,101466.00
2022-10-05T11:23:55.982Z,101460.69
2022-10-05T11:27:11.453Z,101458.28
2022-10-05T11:30:16.399Z,101463.25
2022-10-05T11:33:33.959Z,101458.97
2022-10-05T11:36:51.238Z,101451.31
2022-10-05T11:40:12.815Z,101438.53
2022-10-05T11:43:15.644Z,101437.91
2022-10-05T11:46:18.473Z,101431.31
2022-10-05T11:49:38.527Z,101438.25
2022-10-05T11:52:47.450Z,101431.47
2022-10-05T11:56:01.616Z,101427.81
2022-10-05T11:59:03.841Z,101423.56
2022-10-05T12:02:14.625Z,101420.47
2022-10-05T12:05:25.593Z,101417.06
2022-10-05T12:08:30.944Z,101416.13
2022-10-05T12:11:57.901Z,101405.81
2022-10-05T12:15:24.026Z,101407.50
2022-10-05T12:18:33.306Z,101406.94
2022-10-05T12:21:42.027Z,101409.72
2022-10-05T12:25:06.778Z,101415.56
2022-10-05T12:28:11.222Z,101400.09
2022-10-05T12:31:22.620Z,101396.75
2022-10-05T12:34:51.617Z,101405.94
2022-10-05T12:37:59.341Z,101402.75
2022-10-05T12:41:07.216Z,101388.97
2022-10-05T12:44:28.357Z,101386.63
2022-10-05T12:47:39.608Z,101385.63
2022-10-05T12:50:56.065Z,101376.28
2022-10-05T12:54:19.730Z,101369.44
2022-10-05T12:57:50.168Z,101381.28
2022-10-05T13:01:16.407Z,101376.84
2022-10-05T13:04:44.865Z,101372.53
2022-10-05T13:08:06.347Z,101363.63
2022-10-05T13:11:25.241Z,101361.50
2022-10-05T13:14:34.411Z,101381.03
2022-10-05T13:18:03.379Z,101383.66
2022-10-05T13:21:28.725Z,101374.47
2022-10-05T13:24:35.096Z,101383.03
2022-10-05T13:27:41.322Z,101369.44
2022-10-05T13:30:58.216Z,101368.31
2022-10-05T13:34:08.235Z,101363.88
2022-10-05T13:37:18.414Z,101357.31
2022-10-05T13:40:30.270Z,101366.25
2022-10-05T13:43:33.726Z,101357.88
2022-10-05T13:46:43.254Z,101359.69
2022-10-05T13:49:51.674Z,101358.44
2022-10-05T13:53:08.766Z,101353.81
2022-10-05T13:56:34.643Z,101355.37
2022-10-05T13:59:46.128Z,101353.69
2022-10-05T14:02:51.053Z,101354.50
2022-10-05T14:05:58.553Z,101360.78
2022-10-05T14:09:01.819Z,101367.19
2022-10-05T14:12:04.939Z,101361.47
2022-10-05T14:15:26.026Z,101356.44
2022-10-05T14:18:31.039Z,101356.25
2022-10-05T14:21:43.513Z,101360.69
2022-10-05T14:24:52.436Z,101358.38
2022-10-05T14:28:24.379Z,101350.94
2022-10-05T14:31:32.077Z,101358.31
2022-10-05T14:34:35.599Z,101356.78
2022-10-05T14:37:47.605Z,101357.22
2022-10-05T14:41:14.215Z,101346.75
2022-10-05T14:44:23.438Z,101346.03
2022-10-05T14:47:28.412Z,101357.16
2022-10-05T14:50:31.679Z,101354.34
2022-10-05T14:53:38.723Z,101352.75
2022-10-05T14:56:43.433Z,101349.84
2022-10-05T15:00:00.665Z,101349.94
2022-10-05T15:03:36.413Z,101345.44
2022-10-05T15:06:38.911Z,101346.56
2022-10-05T15:09:51.011Z,101341.34
2022-10-05T15:12:56.719Z,101339.25
2022-10-05T15:16:12.448Z,101336.41
2022-10-05T15:19:24.567Z,101327.59
2022-10-05T15:22:32.974Z,101324.63
2022-10-05T15:25:41.110Z,101327.91
2022-10-05T15:28:48.888Z,101331.03
2022-10-05T15:32:15.128Z,101339.63
2022-10-05T15:35:39.230Z,101339.13
2022-10-05T15:38:51.870Z,101315.37
2022-10-05T15:42:16.208Z,101307.72
2022-10-05T15:45:25.164Z,101314.56
2022-10-05T15:48:39.493Z,101320.09
2022-10-05T15:51:50.277Z,101316.53
2022-10-05T15:55:08.114Z,101316.81
2022-10-05T15:58:10.904Z,101318.50
2022-10-05T16:01:20.368Z,101321.66
2022-10-05T16:04:39.414Z,101315.97
2022-10-05T16:08:08.519Z,101328.81
2022-10-05T16:11:19.053Z,101318.28
2022-10-05T16:14:28.530Z,101326.44
2022-10-05T16:17:35.618Z,101324.41
2022-10-05T16:20:46.684Z,101329.78
2022-10-05T16:23:58.070Z,101338.63
2022-10-05T16:27:04.357Z,101328.34
2022-10-05T16:30:10.936Z,101329.41
2022-10-05T16:33:28.138Z,101331.28
2022-10-05T16:36:49.368Z,101331.38
2022-10-05T16:40:04.213Z,101327.75
2022-10-05T16:43:15.962Z,101342.50
2022-10-05T16:46:28.659Z,101341.50
2022-10-05T16:49:44.043Z,101344.81
2022-10-05T16:52:48.381Z,101349.34
2022-10-05T16:56:03.417Z,101339.00
2022-10-05T16:59:05.920Z,101341.63
2022-10-05T17:02:24.240Z,101346.94
2022-10-05T17:05:26.855Z,101363.75
2022-10-05T17:08:48.046Z,101361.91
2022-10-05T17:11:59.726Z,101365.78
2022-10-05T17:15:11.078Z,101363.81
2022-10-05T17:18:24.026Z,101369.72
2022-10-05T17:21:38.922Z,101374.53
2022-10-05T17:25:01.801Z,101377.50
2022-10-05T17:28:22.688Z,101376.13
2022-10-05T17:31:28.426Z,101374.16
2022-10-05T17:34:36.491Z,101371.22
2022-10-05T17:37:41.028Z,101371.50
2022-10-05T17:41:13.113Z,101370.25
2022-10-05T17:44:20.893Z,101374.62
2022-10-05T17:47:49.801Z,101373.47
2022-10-05T17:51:11.215Z,101379.37
2022-10-05T17:54:39.096Z,101381.75
2022-10-05T17:57:42.967Z,101388.47
2022-10-05T18:00:57.079Z,101394.94
2022-10-05T18:04:31.242Z,101388.34
2022-10-05T18:07:35.911Z,101376.44
2022-10-05T18:10:42.445Z,101381.56
2022-10-05T18:13:50.425Z,101380.38
2022-10-05T18:17:04.545Z,101372.19
2022-10-05T18:20:27.207Z,101376.03
2022-10-05T18:23:36.415Z,101380.19
2022-10-05T18:26:47.563Z,101382.47
2022-10-05T18:30:15.858Z,101381.59
2022-10-05T18:33:28.419Z,101388.81
2022-10-05T18:36:37.726Z,101386.47
2022-10-05T18:39:47.062Z,101383.75
2022-10-05T18:43:02.976Z,101382.84
2022-10-05T18:46:30.776Z,101377.62
2022-10-05T18:49:33.963Z,101382.22
2022-10-05T18:52:55.521Z,101381.81
2022-10-05T18:56:04.281Z,101376.94
2022-10-05T18:59:24.841Z,101386.66
2022-10-05T19:02:45.782Z,101379.59
2022-10-05T19:05:54.867Z,101378.63
2022-10-05T19:09:03.484Z,101384.62
2022-10-05T19:12:30.661Z,101380.03
2022-10-05T19:16:05.803Z,101375.19
2022-10-05T19:19:10.982Z,101379.94
2022-10-05T19:22:19.652Z,101383.78
2022-10-05T19:25:24.835Z,101383.78
2022-10-05T19:28:37.638Z,101383.97
2022-10-05T19:31:48.525Z,101386.94
2022-10-05T19:35:11.676Z,101389.06
2022-10-05T19:38:28.117Z,101386.91
2022-10-05T19:41:40.834Z,101393.59
2022-10-05T19:44:58.098Z,101398.94
2022-10-05T19:48:03.060Z,101395.50
2022-10-05T19:51:11.198Z,101397.44
2022-10-05T19:54:21.995Z,101389.00
2022-10-05T19:57:29.172Z,101395.84
2022-10-05T20:00:39.638Z,101403.66
2022-10-05T20:03:49.010Z,101408.44
2022-10-05T20:06:55.380Z,101410.34
2022-10-05T20:09:58.781Z,101413.47
2022-10-05T20:13:08.663Z,101417.03
2022-10-05T20:16:37.795Z,101422.69
2022-10-05T20:20:02.609Z,101414.84
2022-10-05T20:23:25.681Z,101419.75
2022-10-05T20:26:56.595Z,101427.00
2022-10-05T20:29:59.094Z,101436.69
2022-10-05T20:33:01.810Z,101426.19
2022-10-05T20:36:08.354Z,101431.47
2022-10-05T20:39:10.941Z,101425.34
2022-10-05T20:42:14.436Z,101432.41
2022-10-05T20:45:19.782Z,101430.37
2022-10-05T20:48:26.174Z,101422.91
2022-10-05T20:51:29.377Z,101427.53
2022-10-05T20:54:32.327Z,101426.97
2022-10-05T20:57:34.645Z,101431.16
2022-10-05T21:00:55.464Z,101427.03
2022-10-05T21:03:58.531Z,101426.13
2022-10-05T21:07:03.150Z,101423.25
2022-10-05T21:10:05.499Z,101430.41
2022-10-05T21:13:07.898Z,101434.69
2022-10-05T21:16:13.096Z,101431.50
2022-10-05T21:19:15.488Z,101424.91
2022-10-05T21:22:18.380Z,101429.63
2022-10-05T21:25:20.356Z,101430.63
2022-10-05T21:28:23.371Z,101424.81
2022-10-05T21:31:27.042Z,101420.75
2022-10-05T21:34:29.557Z,101426.69
2022-10-05T21:37:35.893Z,101422.72
2022-10-05T21:40:38.800Z,101426.37
2022-10-05T21:43:43.210Z,101423.87
2022-10-05T21:46:49.517Z,101421.28
2022-10-05T21:49:51.770Z,101423.34
2022-10-05T21:52:54.938Z,101422.09
2022-10-05T21:56:02.124Z,101424.63
2022-10-05T21:59:06.787Z,101425.06
2022-10-05T22:02:13.275Z,101426.37
2022-10-05T22:05:18.371Z,101424.31
2022-10-05T22:08:27.586Z,101419.19
2022-10-05T22:11:33.295Z,101415.66
2022-10-05T22:14:35.757Z,101407.44
2022-10-05T22:17:39.418Z,101408.59
2022-10-05T22:20:41.871Z,101409.16
2022-10-05T22:23:48.442Z,101414.72
2022-10-05T22:26:53.903Z,101406.19
2022-10-05T22:29:59.672Z,101406.13
2022-10-05T22:33:03.146Z,101401.50
2022-10-05T22:36:07.463Z,101405.72
2022-10-05T22:39:12.708Z,101403.41
2022-10-05T22:42:16.313Z,101399.19
2022-10-05T22:45:22.993Z,101400.06
2022-10-05T22:48:27.073Z,101400.97
2022-10-05T22:51:32.074Z,101401.81
2022-10-05T22:54:37.205Z,101397.28
2022-10-05T22:57:40.184Z,101394.75
2022-10-05T23:00:59.187Z,101394.75
2022-10-05T23:04:04.292Z,101392.69
2022-10-05T23:07:07.170Z,101384.59
2022-10-05T23:10:13.231Z,101387.53
2022-10-05T23:13:15.486Z,101377.03
2022-10-05T23:16:19.772Z,101380.38
2022-10-05T23:19:23.740Z,101374.06
2022-10-05T23:22:34.193Z,101377.94
2022-10-05T23:25:35.974Z,101371.81
2022-10-05T23:28:46.951Z,101371.69
2022-10-05T23:31:49.353Z,101372.63
2022-10-05T23:34:51.352Z,101369.31
2022-10-05T23:38:00.452Z,101366.72
2022-10-05T23:41:03.619Z,101365.16
2022-10-05T23:44:08.176Z,101370.25
2022-10-05T23:47:10.486Z,101372.72
2022-10-05T23:50:19.977Z,101362.37
2022-10-05T23:53:23.930Z,101368.09
2022-10-05T23:56:26.123Z,101360.19
2022-10-05T23:59:30.531Z,101365.00
